sensor_id;sensor_type;location;lat;lon;timestamp;P1;durP1;ratioP1;P2;durP2;ratioP2
15486;SDS011;7845;53.698;10.078;2023-08-12T00:00:28;4.77;;;3.03;;
15486;SDS011;7845;53.698;10.078;2023-08-12T00:02:54;5.20;;;2.37;;
15486;SDS011;7845;53.698;10.078;2023-08-12T00:05:21;3.50;;;2.13;;
15486;SDS011;7845;53.698;10.078;2023-08-12T00:07:47;4.30;;;2.50;;
15486;SDS011;7845;53.698;10.078;2023-08-12T00:10:14;3.50;;;2.47;;
15486;SDS011;7845;53.698;10.078;2023-08-12T00:12:39;3.40;;;2.00;;
15486;SDS011;7845;53.698;10.078;2023-08-12T00:15:06;4.20;;;2.50;;
15486;SDS011;7845;53.698;10.078;2023-08-12T00:17:33;3.93;;;2.63;;
15486;SDS011;7845;53.698;10.078;2023-08-12T00:19:59;3.53;;;2.23;;
15486;SDS011;7845;53.698;10.078;2023-08-12T00:22:26;4.37;;;2.67;;
15486;SDS011;7845;53.698;10.078;2023-08-12T00:24:51;3.80;;;2.40;;
15486;SDS011;7845;53.698;10.078;2023-08-12T00:27:17;3.43;;;2.20;;
15486;SDS011;7845;53.698;10.078;2023-08-12T00:29:42;4.13;;;2.70;;
15486;SDS011;7845;53.698;10.078;2023-08-12T00:32:09;4.00;;;2.50;;
15486;SDS011;7845;53.698;10.078;2023-08-12T00:34:35;4.37;;;2.40;;
15486;SDS011;7845;53.698;10.078;2023-08-12T00:37:00;3.33;;;2.03;;
15486;SDS011;7845;53.698;10.078;2023-08-12T00:39:26;3.80;;;2.27;;
15486;SDS011;7845;53.698;10.078;2023-08-12T00:41:51;4.73;;;2.63;;
15486;SDS011;7845;53.698;10.078;2023-08-12T00:44:16;3.83;;;2.03;;
15486;SDS011;7845;53.698;10.078;2023-08-12T00:46:43;3.60;;;2.07;;
15486;SDS011;7845;53.698;10.078;2023-08-12T00:49:09;3.80;;;1.93;;
15486;SDS011;7845;53.698;10.078;2023-08-12T00:51:35;4.13;;;2.30;;
15486;SDS011;7845;53.698;10.078;2023-08-12T00:54:04;3.33;;;1.97;;
15486;SDS011;7845;53.698;10.078;2023-08-12T00:56:31;4.70;;;2.30;;
15486;SDS011;7845;53.698;10.078;2023-08-12T00:59:00;4.07;;;2.20;;
15486;SDS011;7845;53.698;10.078;2023-08-12T01:01:29;3.83;;;2.20;;
15486;SDS011;7845;53.698;10.078;2023-08-12T01:03:57;5.20;;;2.90;;
15486;SDS011;7845;53.698;10.078;2023-08-12T01:06:23;4.13;;;2.30;;
15486;SDS011;7845;53.698;10.078;2023-08-12T01:08:49;3.80;;;2.10;;
15486;SDS011;7845;53.698;10.078;2023-08-12T01:11:24;4.17;;;2.03;;
15486;SDS011;7845;53.698;10.078;2023-08-12T01:14:17;3.80;;;2.30;;
15486;SDS011;7845;53.698;10.078;2023-08-12T01:16:49;3.60;;;2.00;;
15486;SDS011;7845;53.698;10.078;2023-08-12T01:19:22;4.07;;;2.40;;
15486;SDS011;7845;53.698;10.078;2023-08-12T01:22:01;4.10;;;2.40;;
15486;SDS011;7845;53.698;10.078;2023-08-12T01:24:27;3.57;;;1.90;;
15486;SDS011;7845;53.698;10.078;2023-08-12T01:27:00;3.63;;;2.23;;
15486;SDS011;7845;53.698;10.078;2023-08-12T01:29:25;3.77;;;1.97;;
15486;SDS011;7845;53.698;10.078;2023-08-12T01:31:54;3.43;;;1.90;;
15486;SDS011;7845;53.698;10.078;2023-08-12T01:34:28;4.17;;;2.30;;
15486;SDS011;7845;53.698;10.078;2023-08-12T01:37:04;6.40;;;2.10;;
15486;SDS011;7845;53.698;10.078;2023-08-12T01:39:33;3.53;;;1.97;;
15486;SDS011;7845;53.698;10.078;2023-08-12T01:42:04;3.40;;;2.03;;
15486;SDS011;7845;53.698;10.078;2023-08-12T01:44:30;3.70;;;1.80;;
15486;SDS011;7845;53.698;10.078;2023-08-12T01:46:59;3.33;;;1.80;;
15486;SDS011;7845;53.698;10.078;2023-08-12T01:49:26;4.83;;;2.20;;
15486;SDS011;7845;53.698;10.078;2023-08-12T01:51:52;4.47;;;2.40;;
15486;SDS011;7845;53.698;10.078;2023-08-12T01:54:17;3.40;;;2.20;;
15486;SDS011;7845;53.698;10.078;2023-08-12T01:56:43;3.40;;;1.90;;
15486;SDS011;7845;53.698;10.078;2023-08-12T01:59:08;3.70;;;2.33;;
15486;SDS011;7845;53.698;10.078;2023-08-12T02:01:35;3.70;;;2.30;;
15486;SDS011;7845;53.698;10.078;2023-08-12T02:04:00;4.20;;;2.87;;
15486;SDS011;7845;53.698;10.078;2023-08-12T02:06:26;5.53;;;2.60;;
15486;SDS011;7845;53.698;10.078;2023-08-12T02:08:51;12.23;;;4.10;;
15486;SDS011;7845;53.698;10.078;2023-08-12T02:11:18;3.90;;;2.33;;
15486;SDS011;7845;53.698;10.078;2023-08-12T02:13:43;4.43;;;2.93;;
15486;SDS011;7845;53.698;10.078;2023-08-12T02:16:08;4.77;;;3.40;;
15486;SDS011;7845;53.698;10.078;2023-08-12T02:18:34;3.60;;;2.20;;
15486;SDS011;7845;53.698;10.078;2023-08-12T02:21:01;4.47;;;1.80;;
15486;SDS011;7845;53.698;10.078;2023-08-12T02:23:27;3.73;;;2.03;;
15486;SDS011;7845;53.698;10.078;2023-08-12T02:25:52;3.80;;;2.03;;
15486;SDS011;7845;53.698;10.078;2023-08-12T02:28:19;3.77;;;1.87;;
15486;SDS011;7845;53.698;10.078;2023-08-12T02:30:44;4.13;;;2.50;;
15486;SDS011;7845;53.698;10.078;2023-08-12T02:33:10;3.90;;;2.17;;
15486;SDS011;7845;53.698;10.078;2023-08-12T02:35:35;3.80;;;2.30;;
15486;SDS011;7845;53.698;10.078;2023-08-12T02:38:01;4.27;;;2.20;;
15486;SDS011;7845;53.698;10.078;2023-08-12T02:40:27;3.50;;;1.87;;
15486;SDS011;7845;53.698;10.078;2023-08-12T02:42:52;3.77;;;1.80;;
15486;SDS011;7845;53.698;10.078;2023-08-12T02:45:18;3.80;;;1.90;;
15486;SDS011;7845;53.698;10.078;2023-08-12T02:47:43;5.40;;;2.87;;
15486;SDS011;7845;53.698;10.078;2023-08-12T02:50:08;3.60;;;1.90;;
15486;SDS011;7845;53.698;10.078;2023-08-12T02:52:34;4.20;;;2.20;;
15486;SDS011;7845;53.698;10.078;2023-08-12T02:55:02;4.00;;;2.60;;
15486;SDS011;7845;53.698;10.078;2023-08-12T02:57:28;3.40;;;1.97;;
15486;SDS011;7845;53.698;10.078;2023-08-12T02:59:54;3.37;;;1.83;;
15486;SDS011;7845;53.698;10.078;2023-08-12T03:02:20;3.70;;;2.03;;
15486;SDS011;7845;53.698;10.078;2023-08-12T03:04:47;3.43;;;2.00;;
15486;SDS011;7845;53.698;10.078;2023-08-12T03:07:21;3.53;;;2.17;;
15486;SDS011;7845;53.698;10.078;2023-08-12T03:09:47;3.87;;;2.37;;
15486;SDS011;7845;53.698;10.078;2023-08-12T03:12:12;3.70;;;2.07;;
15486;SDS011;7845;53.698;10.078;2023-08-12T03:14:37;4.40;;;2.10;;
15486;SDS011;7845;53.698;10.078;2023-08-12T03:17:03;4.50;;;2.90;;
15486;SDS011;7845;53.698;10.078;2023-08-12T03:19:30;3.80;;;2.10;;
15486;SDS011;7845;53.698;10.078;2023-08-12T03:21:57;4.43;;;2.50;;
15486;SDS011;7845;53.698;10.078;2023-08-12T03:24:22;4.00;;;2.33;;
15486;SDS011;7845;53.698;10.078;2023-08-12T03:26:47;4.10;;;2.00;;
15486;SDS011;7845;53.698;10.078;2023-08-12T03:29:14;4.23;;;2.13;;
15486;SDS011;7845;53.698;10.078;2023-08-12T03:31:39;6.03;;;2.80;;
15486;SDS011;7845;53.698;10.078;2023-08-12T03:34:05;4.03;;;2.40;;
15486;SDS011;7845;53.698;10.078;2023-08-12T03:36:30;3.67;;;2.07;;
15486;SDS011;7845;53.698;10.078;2023-08-12T03:38:55;3.97;;;2.50;;
15486;SDS011;7845;53.698;10.078;2023-08-12T03:41:22;3.70;;;2.20;;
15486;SDS011;7845;53.698;10.078;2023-08-12T03:43:47;4.20;;;1.80;;
15486;SDS011;7845;53.698;10.078;2023-08-12T03:46:12;3.60;;;2.17;;
15486;SDS011;7845;53.698;10.078;2023-08-12T03:48:37;3.60;;;2.00;;
15486;SDS011;7845;53.698;10.078;2023-08-12T03:51:03;3.43;;;1.67;;
15486;SDS011;7845;53.698;10.078;2023-08-12T03:53:28;3.63;;;2.07;;
15486;SDS011;7845;53.698;10.078;2023-08-12T03:55:53;3.50;;;1.90;;
15486;SDS011;7845;53.698;10.078;2023-08-12T03:58:19;3.60;;;2.23;;
15486;SDS011;7845;53.698;10.078;2023-08-12T04:00:45;3.57;;;1.80;;
15486;SDS011;7845;53.698;10.078;2023-08-12T04:03:10;3.93;;;1.83;;
15486;SDS011;7845;53.698;10.078;2023-08-12T04:05:36;3.63;;;2.17;;
15486;SDS011;7845;53.698;10.078;2023-08-12T04:08:01;4.90;;;2.30;;
15486;SDS011;7845;53.698;10.078;2023-08-12T04:10:27;3.93;;;2.40;;
15486;SDS011;7845;53.698;10.078;2023-08-12T04:12:52;3.30;;;1.60;;
15486;SDS011;7845;53.698;10.078;2023-08-12T04:15:17;3.87;;;2.00;;
15486;SDS011;7845;53.698;10.078;2023-08-12T04:17:43;3.77;;;2.03;;
15486;SDS011;7845;53.698;10.078;2023-08-12T04:20:08;4.67;;;2.17;;
15486;SDS011;7845;53.698;10.078;2023-08-12T04:22:34;3.67;;;2.20;;
15486;SDS011;7845;53.698;10.078;2023-08-12T04:24:59;3.90;;;2.40;;
15486;SDS011;7845;53.698;10.078;2023-08-12T04:27:27;3.80;;;2.13;;
15486;SDS011;7845;53.698;10.078;2023-08-12T04:29:52;4.00;;;2.40;;
15486;SDS011;7845;53.698;10.078;2023-08-12T04:32:17;3.87;;;2.60;;
15486;SDS011;7845;53.698;10.078;2023-08-12T04:34:44;4.67;;;2.60;;
15486;SDS011;7845;53.698;10.078;2023-08-12T04:37:11;3.80;;;2.07;;
15486;SDS011;7845;53.698;10.078;2023-08-12T04:39:39;3.83;;;2.30;;
15486;SDS011;7845;53.698;10.078;2023-08-12T04:42:05;4.00;;;2.00;;
15486;SDS011;7845;53.698;10.078;2023-08-12T04:44:30;4.20;;;1.80;;
15486;SDS011;7845;53.698;10.078;2023-08-12T04:46:58;3.80;;;2.00;;
15486;SDS011;7845;53.698;10.078;2023-08-12T04:49:25;3.20;;;1.50;;
15486;SDS011;7845;53.698;10.078;2023-08-12T04:51:55;3.77;;;2.10;;
15486;SDS011;7845;53.698;10.078;2023-08-12T04:54:20;3.60;;;1.90;;
15486;SDS011;7845;53.698;10.078;2023-08-12T04:56:47;3.47;;;1.67;;
15486;SDS011;7845;53.698;10.078;2023-08-12T04:59:12;4.47;;;2.10;;
15486;SDS011;7845;53.698;10.078;2023-08-12T05:01:37;4.60;;;2.20;;
15486;SDS011;7845;53.698;10.078;2023-08-12T05:04:03;3.57;;;1.80;;
15486;SDS011;7845;53.698;10.078;2023-08-12T05:06:29;3.50;;;1.60;;
15486;SDS011;7845;53.698;10.078;2023-08-12T05:08:56;3.70;;;1.60;;
15486;SDS011;7845;53.698;10.078;2023-08-12T05:11:21;4.23;;;1.80;;
15486;SDS011;7845;53.698;10.078;2023-08-12T05:13:48;3.50;;;1.83;;
15486;SDS011;7845;53.698;10.078;2023-08-12T05:16:13;3.50;;;1.67;;
15486;SDS011;7845;53.698;10.078;2023-08-12T05:18:38;3.97;;;2.13;;
15486;SDS011;7845;53.698;10.078;2023-08-12T05:21:04;4.10;;;2.17;;
15486;SDS011;7845;53.698;10.078;2023-08-12T05:23:29;3.40;;;1.73;;
15486;SDS011;7845;53.698;10.078;2023-08-12T05:25:54;3.53;;;1.97;;
15486;SDS011;7845;53.698;10.078;2023-08-12T05:28:20;3.50;;;2.00;;
15486;SDS011;7845;53.698;10.078;2023-08-12T05:30:46;3.40;;;1.93;;
15486;SDS011;7845;53.698;10.078;2023-08-12T05:33:13;3.70;;;1.80;;
15486;SDS011;7845;53.698;10.078;2023-08-12T05:35:38;4.10;;;1.80;;
15486;SDS011;7845;53.698;10.078;2023-08-12T05:38:06;3.40;;;1.50;;
15486;SDS011;7845;53.698;10.078;2023-08-12T05:40:32;3.70;;;1.73;;
15486;SDS011;7845;53.698;10.078;2023-08-12T05:42:57;3.70;;;1.43;;
15486;SDS011;7845;53.698;10.078;2023-08-12T05:45:22;3.60;;;1.80;;
15486;SDS011;7845;53.698;10.078;2023-08-12T05:47:47;3.63;;;1.40;;
15486;SDS011;7845;53.698;10.078;2023-08-12T05:50:13;3.40;;;1.80;;
15486;SDS011;7845;53.698;10.078;2023-08-12T05:52:41;3.30;;;1.50;;
15486;SDS011;7845;53.698;10.078;2023-08-12T05:55:06;4.13;;;1.50;;
15486;SDS011;7845;53.698;10.078;2023-08-12T05:57:31;3.77;;;1.83;;
15486;SDS011;7845;53.698;10.078;2023-08-12T05:59:57;4.23;;;2.20;;
15486;SDS011;7845;53.698;10.078;2023-08-12T06:02:22;3.50;;;1.40;;
15486;SDS011;7845;53.698;10.078;2023-08-12T06:04:51;3.87;;;1.80;;
15486;SDS011;7845;53.698;10.078;2023-08-12T06:07:16;3.70;;;1.70;;
15486;SDS011;7845;53.698;10.078;2023-08-12T06:09:41;3.67;;;1.93;;
15486;SDS011;7845;53.698;10.078;2023-08-12T06:12:07;3.70;;;2.33;;
15486;SDS011;7845;53.698;10.078;2023-08-12T06:14:36;3.43;;;1.97;;
15486;SDS011;7845;53.698;10.078;2023-08-12T06:17:02;3.63;;;2.03;;
15486;SDS011;7845;53.698;10.078;2023-08-12T06:19:27;3.87;;;2.00;;
15486;SDS011;7845;53.698;10.078;2023-08-12T06:21:53;3.63;;;1.97;;
15486;SDS011;7845;53.698;10.078;2023-08-12T06:24:18;3.80;;;1.90;;
15486;SDS011;7845;53.698;10.078;2023-08-12T06:26:43;3.37;;;1.80;;
15486;SDS011;7845;53.698;10.078;2023-08-12T06:29:08;3.90;;;1.97;;
15486;SDS011;7845;53.698;10.078;2023-08-12T06:31:34;4.37;;;2.23;;
15486;SDS011;7845;53.698;10.078;2023-08-12T06:33:59;3.40;;;2.00;;
15486;SDS011;7845;53.698;10.078;2023-08-12T06:36:25;3.50;;;1.90;;
15486;SDS011;7845;53.698;10.078;2023-08-12T06:38:50;4.00;;;2.37;;
15486;SDS011;7845;53.698;10.078;2023-08-12T06:41:16;4.03;;;2.10;;
15486;SDS011;7845;53.698;10.078;2023-08-12T06:43:41;3.60;;;1.93;;
15486;SDS011;7845;53.698;10.078;2023-08-12T06:46:06;4.07;;;2.40;;
15486;SDS011;7845;53.698;10.078;2023-08-12T06:48:31;6.80;;;2.13;;
15486;SDS011;7845;53.698;10.078;2023-08-12T06:50:57;4.20;;;2.37;;
15486;SDS011;7845;53.698;10.078;2023-08-12T06:53:22;4.10;;;2.53;;
15486;SDS011;7845;53.698;10.078;2023-08-12T06:55:49;3.80;;;2.17;;
15486;SDS011;7845;53.698;10.078;2023-08-12T06:58:14;5.70;;;2.33;;
15486;SDS011;7845;53.698;10.078;2023-08-12T07:00:40;5.10;;;2.67;;
15486;SDS011;7845;53.698;10.078;2023-08-12T07:03:07;4.00;;;2.70;;
15486;SDS011;7845;53.698;10.078;2023-08-12T07:05:32;5.03;;;3.90;;
15486;SDS011;7845;53.698;10.078;2023-08-12T07:07:59;4.70;;;2.97;;
15486;SDS011;7845;53.698;10.078;2023-08-12T07:10:29;5.20;;;3.53;;
15486;SDS011;7845;53.698;10.078;2023-08-12T07:12:54;4.23;;;3.07;;
15486;SDS011;7845;53.698;10.078;2023-08-12T07:15:19;4.30;;;2.53;;
15486;SDS011;7845;53.698;10.078;2023-08-12T07:17:45;4.50;;;2.90;;
15486;SDS011;7845;53.698;10.078;2023-08-12T07:20:10;5.47;;;2.83;;
15486;SDS011;7845;53.698;10.078;2023-08-12T07:22:35;4.33;;;2.90;;
15486;SDS011;7845;53.698;10.078;2023-08-12T07:25:01;3.90;;;2.50;;
15486;SDS011;7845;53.698;10.078;2023-08-12T07:27:29;4.57;;;2.60;;
15486;SDS011;7845;53.698;10.078;2023-08-12T07:29:54;4.20;;;2.73;;
15486;SDS011;7845;53.698;10.078;2023-08-12T07:32:21;4.60;;;2.60;;
15486;SDS011;7845;53.698;10.078;2023-08-12T07:34:47;4.47;;;2.60;;
15486;SDS011;7845;53.698;10.078;2023-08-12T07:37:12;4.57;;;2.73;;
15486;SDS011;7845;53.698;10.078;2023-08-12T07:39:37;4.80;;;3.20;;
15486;SDS011;7845;53.698;10.078;2023-08-12T07:42:03;4.23;;;2.60;;
15486;SDS011;7845;53.698;10.078;2023-08-12T07:44:29;5.60;;;4.40;;
15486;SDS011;7845;53.698;10.078;2023-08-12T07:46:55;6.00;;;4.00;;
15486;SDS011;7845;53.698;10.078;2023-08-12T07:49:21;4.10;;;2.63;;
15486;SDS011;7845;53.698;10.078;2023-08-12T07:51:46;6.60;;;4.33;;
15486;SDS011;7845;53.698;10.078;2023-08-12T07:54:13;8.03;;;5.17;;
15486;SDS011;7845;53.698;10.078;2023-08-12T07:56:40;6.37;;;4.40;;
15486;SDS011;7845;53.698;10.078;2023-08-12T07:59:05;5.87;;;4.30;;
15486;SDS011;7845;53.698;10.078;2023-08-12T08:01:30;5.70;;;4.60;;
15486;SDS011;7845;53.698;10.078;2023-08-12T08:03:56;5.70;;;4.00;;
15486;SDS011;7845;53.698;10.078;2023-08-12T08:06:23;4.73;;;3.20;;
15486;SDS011;7845;53.698;10.078;2023-08-12T08:08:52;7.00;;;5.20;;
15486;SDS011;7845;53.698;10.078;2023-08-12T08:11:18;6.30;;;4.30;;
15486;SDS011;7845;53.698;10.078;2023-08-12T08:13:49;5.80;;;4.40;;
15486;SDS011;7845;53.698;10.078;2023-08-12T08:16:14;5.57;;;4.33;;
15486;SDS011;7845;53.698;10.078;2023-08-12T08:18:41;5.00;;;3.87;;
15486;SDS011;7845;53.698;10.078;2023-08-12T08:21:06;5.27;;;4.00;;
15486;SDS011;7845;53.698;10.078;2023-08-12T08:23:33;6.70;;;5.63;;
15486;SDS011;7845;53.698;10.078;2023-08-12T08:25:58;5.60;;;4.13;;
15486;SDS011;7845;53.698;10.078;2023-08-12T08:28:24;5.10;;;3.50;;
15486;SDS011;7845;53.698;10.078;2023-08-12T08:30:49;5.40;;;3.10;;
15486;SDS011;7845;53.698;10.078;2023-08-12T08:33:14;4.77;;;3.00;;
15486;SDS011;7845;53.698;10.078;2023-08-12T08:35:39;5.23;;;2.67;;
15486;SDS011;7845;53.698;10.078;2023-08-12T08:38:05;3.90;;;2.60;;
15486;SDS011;7845;53.698;10.078;2023-08-12T08:40:30;5.83;;;2.90;;
15486;SDS011;7845;53.698;10.078;2023-08-12T08:42:56;4.00;;;2.30;;
15486;SDS011;7845;53.698;10.078;2023-08-12T08:45:28;4.70;;;2.53;;
15486;SDS011;7845;53.698;10.078;2023-08-12T08:47:56;3.93;;;2.30;;
15486;SDS011;7845;53.698;10.078;2023-08-12T08:50:24;4.10;;;2.60;;
15486;SDS011;7845;53.698;10.078;2023-08-12T08:52:50;3.90;;;2.40;;
15486;SDS011;7845;53.698;10.078;2023-08-12T08:55:16;4.93;;;3.03;;
15486;SDS011;7845;53.698;10.078;2023-08-12T08:57:42;4.43;;;2.00;;
15486;SDS011;7845;53.698;10.078;2023-08-12T09:00:09;3.50;;;2.10;;
15486;SDS011;7845;53.698;10.078;2023-08-12T09:02:36;4.27;;;2.40;;
15486;SDS011;7845;53.698;10.078;2023-08-12T09:05:02;4.20;;;1.90;;
15486;SDS011;7845;53.698;10.078;2023-08-12T09:07:30;3.60;;;2.00;;
15486;SDS011;7845;53.698;10.078;2023-08-12T09:09:56;3.97;;;2.30;;
15486;SDS011;7845;53.698;10.078;2023-08-12T09:12:23;3.90;;;2.57;;
15486;SDS011;7845;53.698;10.078;2023-08-12T09:14:49;4.40;;;2.83;;
15486;SDS011;7845;53.698;10.078;2023-08-12T09:17:14;4.60;;;2.73;;
15486;SDS011;7845;53.698;10.078;2023-08-12T09:19:40;3.57;;;1.90;;
15486;SDS011;7845;53.698;10.078;2023-08-12T09:22:07;4.40;;;2.80;;
15486;SDS011;7845;53.698;10.078;2023-08-12T09:24:34;4.00;;;2.00;;
15486;SDS011;7845;53.698;10.078;2023-08-12T09:27:02;4.07;;;2.53;;
15486;SDS011;7845;53.698;10.078;2023-08-12T09:29:34;4.47;;;1.87;;
15486;SDS011;7845;53.698;10.078;2023-08-12T09:34:49;3.80;;;2.20;;
15486;SDS011;7845;53.698;10.078;2023-08-12T09:37:17;5.20;;;2.50;;
15486;SDS011;7845;53.698;10.078;2023-08-12T09:39:43;4.80;;;2.40;;
15486;SDS011;7845;53.698;10.078;2023-08-12T09:42:12;3.50;;;1.73;;
15486;SDS011;7845;53.698;10.078;2023-08-12T09:44:38;4.00;;;2.53;;
15486;SDS011;7845;53.698;10.078;2023-08-12T09:47:05;3.70;;;2.10;;
15486;SDS011;7845;53.698;10.078;2023-08-12T09:49:33;4.20;;;2.57;;
15486;SDS011;7845;53.698;10.078;2023-08-12T09:52:00;4.50;;;2.40;;
15486;SDS011;7845;53.698;10.078;2023-08-12T09:54:27;4.30;;;2.33;;
15486;SDS011;7845;53.698;10.078;2023-08-12T09:56:56;4.80;;;2.67;;
15486;SDS011;7845;53.698;10.078;2023-08-12T09:59:24;4.70;;;2.60;;
15486;SDS011;7845;53.698;10.078;2023-08-12T10:01:52;3.77;;;2.30;;
15486;SDS011;7845;53.698;10.078;2023-08-12T10:04:21;3.90;;;1.67;;
15486;SDS011;7845;53.698;10.078;2023-08-12T10:06:48;3.80;;;2.07;;
15486;SDS011;7845;53.698;10.078;2023-08-12T10:09:17;4.67;;;2.40;;
15486;SDS011;7845;53.698;10.078;2023-08-12T10:11:43;3.30;;;1.80;;
15486;SDS011;7845;53.698;10.078;2023-08-12T10:14:10;3.93;;;2.17;;
15486;SDS011;7845;53.698;10.078;2023-08-12T10:16:36;3.80;;;2.17;;
15486;SDS011;7845;53.698;10.078;2023-08-12T10:19:02;3.83;;;1.63;;
15486;SDS011;7845;53.698;10.078;2023-08-12T10:21:31;3.60;;;1.90;;
15486;SDS011;7845;53.698;10.078;2023-08-12T10:23:57;4.00;;;1.83;;
15486;SDS011;7845;53.698;10.078;2023-08-12T10:26:24;4.10;;;2.20;;
15486;SDS011;7845;53.698;10.078;2023-08-12T10:28:50;4.10;;;2.10;;
15486;SDS011;7845;53.698;10.078;2023-08-12T10:31:15;3.70;;;1.73;;
15486;SDS011;7845;53.698;10.078;2023-08-12T10:33:41;3.53;;;2.10;;
15486;SDS011;7845;53.698;10.078;2023-08-12T10:36:07;4.10;;;2.20;;
15486;SDS011;7845;53.698;10.078;2023-08-12T10:38:33;3.97;;;2.07;;
15486;SDS011;7845;53.698;10.078;2023-08-12T10:41:16;3.70;;;1.80;;
15486;SDS011;7845;53.698;10.078;2023-08-12T10:43:52;3.77;;;2.03;;
15486;SDS011;7845;53.698;10.078;2023-08-12T10:46:30;3.80;;;2.20;;
15486;SDS011;7845;53.698;10.078;2023-08-12T10:49:09;3.73;;;2.23;;
15486;SDS011;7845;53.698;10.078;2023-08-12T10:51:43;3.57;;;1.83;;
15486;SDS011;7845;53.698;10.078;2023-08-12T10:54:31;4.10;;;2.00;;
15486;SDS011;7845;53.698;10.078;2023-08-12T11:02:18;4.50;;;1.90;;
15486;SDS011;7845;53.698;10.078;2023-08-12T11:04:48;3.40;;;2.00;;
15486;SDS011;7845;53.698;10.078;2023-08-12T11:07:15;3.17;;;1.60;;
15486;SDS011;7845;53.698;10.078;2023-08-12T11:09:41;3.60;;;1.80;;
15486;SDS011;7845;53.698;10.078;2023-08-12T11:12:08;4.20;;;2.00;;
15486;SDS011;7845;53.698;10.078;2023-08-12T11:14:38;3.90;;;1.80;;
15486;SDS011;7845;53.698;10.078;2023-08-12T11:17:14;3.80;;;2.00;;
15486;SDS011;7845;53.698;10.078;2023-08-12T11:19:41;3.67;;;1.50;;
15486;SDS011;7845;53.698;10.078;2023-08-12T11:22:07;3.70;;;1.90;;
15486;SDS011;7845;53.698;10.078;2023-08-12T11:24:33;3.47;;;1.77;;
15486;SDS011;7845;53.698;10.078;2023-08-12T11:27:01;3.70;;;2.07;;
15486;SDS011;7845;53.698;10.078;2023-08-12T11:29:27;4.73;;;1.60;;
15486;SDS011;7845;53.698;10.078;2023-08-12T11:31:55;3.50;;;1.90;;
15486;SDS011;7845;53.698;10.078;2023-08-12T11:34:20;3.37;;;1.70;;
15486;SDS011;7845;53.698;10.078;2023-08-12T11:36:45;3.30;;;1.60;;
15486;SDS011;7845;53.698;10.078;2023-08-12T11:39:11;3.80;;;1.67;;
15486;SDS011;7845;53.698;10.078;2023-08-12T11:41:36;3.67;;;1.60;;
15486;SDS011;7845;53.698;10.078;2023-08-12T11:44:02;4.23;;;1.77;;
15486;SDS011;7845;53.698;10.078;2023-08-12T11:46:32;3.70;;;1.97;;
15486;SDS011;7845;53.698;10.078;2023-08-12T11:48:59;3.80;;;2.10;;
15486;SDS011;7845;53.698;10.078;2023-08-12T11:51:24;3.80;;;1.80;;
15486;SDS011;7845;53.698;10.078;2023-08-12T11:53:50;3.40;;;1.57;;
15486;SDS011;7845;53.698;10.078;2023-08-12T11:56:15;3.87;;;1.90;;
15486;SDS011;7845;53.698;10.078;2023-08-12T11:58:40;4.20;;;2.17;;
15486;SDS011;7845;53.698;10.078;2023-08-12T12:01:07;3.97;;;2.43;;
15486;SDS011;7845;53.698;10.078;2023-08-12T12:03:32;3.50;;;1.90;;
15486;SDS011;7845;53.698;10.078;2023-08-12T12:05:58;3.77;;;1.93;;
15486;SDS011;7845;53.698;10.078;2023-08-12T12:08:23;4.20;;;2.20;;
15486;SDS011;7845;53.698;10.078;2023-08-12T12:10:48;4.00;;;2.20;;
15486;SDS011;7845;53.698;10.078;2023-08-12T12:13:13;3.80;;;2.20;;
15486;SDS011;7845;53.698;10.078;2023-08-12T12:15:42;3.87;;;2.30;;
15486;SDS011;7845;53.698;10.078;2023-08-12T12:18:13;3.70;;;1.90;;
15486;SDS011;7845;53.698;10.078;2023-08-12T12:20:42;6.43;;;3.30;;
15486;SDS011;7845;53.698;10.078;2023-08-12T12:23:21;4.17;;;2.63;;
15486;SDS011;7845;53.698;10.078;2023-08-12T12:25:47;4.30;;;2.90;;
15486;SDS011;7845;53.698;10.078;2023-08-12T12:28:13;5.57;;;2.50;;
15486;SDS011;7845;53.698;10.078;2023-08-12T12:30:39;4.30;;;2.70;;
15486;SDS011;7845;53.698;10.078;2023-08-12T12:33:04;4.73;;;3.20;;
15486;SDS011;7845;53.698;10.078;2023-08-12T12:35:31;6.87;;;4.70;;
15486;SDS011;7845;53.698;10.078;2023-08-12T12:37:56;5.20;;;3.60;;
15486;SDS011;7845;53.698;10.078;2023-08-12T12:40:22;4.33;;;2.97;;
15486;SDS011;7845;53.698;10.078;2023-08-12T12:42:48;4.63;;;2.93;;
15486;SDS011;7845;53.698;10.078;2023-08-12T12:45:13;6.90;;;4.00;;
15486;SDS011;7845;53.698;10.078;2023-08-12T12:47:38;7.20;;;3.40;;
15486;SDS011;7845;53.698;10.078;2023-08-12T12:50:05;5.30;;;3.53;;
15486;SDS011;7845;53.698;10.078;2023-08-12T12:52:31;5.10;;;3.43;;
15486;SDS011;7845;53.698;10.078;2023-08-12T12:54:56;5.03;;;3.17;;
15486;SDS011;7845;53.698;10.078;2023-08-12T12:57:22;5.37;;;2.90;;
15486;SDS011;7845;53.698;10.078;2023-08-12T12:59:49;4.10;;;2.60;;
15486;SDS011;7845;53.698;10.078;2023-08-12T13:02:14;4.10;;;2.50;;
15486;SDS011;7845;53.698;10.078;2023-08-12T13:04:40;6.13;;;3.90;;
15486;SDS011;7845;53.698;10.078;2023-08-12T13:07:05;4.63;;;3.57;;
15486;SDS011;7845;53.698;10.078;2023-08-12T13:09:31;5.60;;;3.87;;
15486;SDS011;7845;53.698;10.078;2023-08-12T13:11:56;5.70;;;3.23;;
15486;SDS011;7845;53.698;10.078;2023-08-12T13:14:23;6.17;;;3.40;;
15486;SDS011;7845;53.698;10.078;2023-08-12T13:16:48;4.70;;;3.20;;
15486;SDS011;7845;53.698;10.078;2023-08-12T13:19:14;4.60;;;2.93;;
15486;SDS011;7845;53.698;10.078;2023-08-12T13:21:39;4.30;;;3.00;;
15486;SDS011;7845;53.698;10.078;2023-08-12T13:24:04;5.87;;;3.10;;
15486;SDS011;7845;53.698;10.078;2023-08-12T13:26:30;4.47;;;2.87;;
15486;SDS011;7845;53.698;10.078;2023-08-12T13:28:58;4.30;;;2.50;;
15486;SDS011;7845;53.698;10.078;2023-08-12T13:31:23;3.87;;;2.57;;
15486;SDS011;7845;53.698;10.078;2023-08-12T13:33:50;4.27;;;2.90;;
15486;SDS011;7845;53.698;10.078;2023-08-12T13:36:16;4.30;;;2.57;;
15486;SDS011;7845;53.698;10.078;2023-08-12T13:38:42;4.30;;;2.60;;
15486;SDS011;7845;53.698;10.078;2023-08-12T13:41:08;4.97;;;2.60;;
15486;SDS011;7845;53.698;10.078;2023-08-12T13:43:34;5.03;;;3.00;;
15486;SDS011;7845;53.698;10.078;2023-08-12T13:46:00;5.30;;;4.00;;
15486;SDS011;7845;53.698;10.078;2023-08-12T13:48:26;4.60;;;3.50;;
15486;SDS011;7845;53.698;10.078;2023-08-12T13:50:52;4.77;;;3.10;;
15486;SDS011;7845;53.698;10.078;2023-08-12T13:53:17;4.50;;;3.13;;
15486;SDS011;7845;53.698;10.078;2023-08-12T13:55:44;4.60;;;3.10;;
15486;SDS011;7845;53.698;10.078;2023-08-12T13:58:09;4.27;;;2.70;;
15486;SDS011;7845;53.698;10.078;2023-08-12T14:00:34;5.30;;;2.90;;
15486;SDS011;7845;53.698;10.078;2023-08-12T14:03:00;4.50;;;3.10;;
15486;SDS011;7845;53.698;10.078;2023-08-12T14:05:25;4.87;;;3.37;;
15486;SDS011;7845;53.698;10.078;2023-08-12T14:07:51;5.00;;;3.33;;
15486;SDS011;7845;53.698;10.078;2023-08-12T14:10:17;5.10;;;3.80;;
15486;SDS011;7845;53.698;10.078;2023-08-12T14:12:42;4.37;;;3.10;;
15486;SDS011;7845;53.698;10.078;2023-08-12T14:15:08;4.53;;;3.00;;
15486;SDS011;7845;53.698;10.078;2023-08-12T14:17:33;4.00;;;2.50;;
15486;SDS011;7845;53.698;10.078;2023-08-12T14:19:59;4.50;;;3.10;;
15486;SDS011;7845;53.698;10.078;2023-08-12T14:22:24;4.50;;;2.93;;
15486;SDS011;7845;53.698;10.078;2023-08-12T14:24:50;4.20;;;2.50;;
15486;SDS011;7845;53.698;10.078;2023-08-12T14:27:15;4.10;;;2.67;;
15486;SDS011;7845;53.698;10.078;2023-08-12T14:29:45;3.87;;;2.20;;
15486;SDS011;7845;53.698;10.078;2023-08-12T14:32:10;4.37;;;2.70;;
15486;SDS011;7845;53.698;10.078;2023-08-12T14:34:36;5.17;;;3.10;;
15486;SDS011;7845;53.698;10.078;2023-08-12T14:37:02;4.40;;;2.80;;
15486;SDS011;7845;53.698;10.078;2023-08-12T14:39:28;4.63;;;3.20;;
15486;SDS011;7845;53.698;10.078;2023-08-12T14:41:54;4.30;;;3.10;;
15486;SDS011;7845;53.698;10.078;2023-08-12T14:44:19;4.30;;;2.83;;
15486;SDS011;7845;53.698;10.078;2023-08-12T14:46:44;6.10;;;3.93;;
15486;SDS011;7845;53.698;10.078;2023-08-12T14:49:09;4.10;;;2.40;;
15486;SDS011;7845;53.698;10.078;2023-08-12T14:51:35;4.87;;;2.70;;